sensor_id;sensor_type;location;lat;lon;timestamp;P1;durP1;ratioP1;P2;durP2;ratioP2
58208;SDS011;44006;52.028;4.696;2022-07-29T00:00:12;3.15;;;1.20;;
58208;SDS011;44006;52.028;4.696;2022-07-29T00:02:38;2.17;;;1.17;;
58208;SDS011;44006;52.028;4.696;2022-07-29T00:05:03;3.60;;;1.15;;
58208;SDS011;44006;52.028;4.696;2022-07-29T00:07:29;4.18;;;1.40;;
58208;SDS011;44006;52.028;4.696;2022-07-29T00:09:56;2.88;;;1.15;;
58208;SDS011;44006;52.028;4.696;2022-07-29T00:12:22;5.95;;;1.33;;
58208;SDS011;44006;52.028;4.696;2022-07-29T00:14:48;4.25;;;1.60;;
58208;SDS011;44006;52.028;4.696;2022-07-29T00:17:14;2.22;;;1.10;;
58208;SDS011;44006;52.028;4.696;2022-07-29T00:19:39;2.75;;;1.20;;
58208;SDS011;44006;52.028;4.696;2022-07-29T00:22:05;5.53;;;1.42;;
58208;SDS011;44006;52.028;4.696;2022-07-29T00:24:30;4.63;;;1.70;;
58208;SDS011;44006;52.028;4.696;2022-07-29T00:26:56;2.83;;;1.10;;
58208;SDS011;44006;52.028;4.696;2022-07-29T00:29:21;5.93;;;1.17;;
58208;SDS011;44006;52.028;4.696;2022-07-29T00:31:47;4.60;;;1.45;;
58208;SDS011;44006;52.028;4.696;2022-07-29T00:34:12;4.53;;;1.30;;
58208;SDS011;44006;52.028;4.696;2022-07-29T00:36:56;2.80;;;1.17;;
58208;SDS011;44006;52.028;4.696;2022-07-29T00:39:22;5.60;;;1.80;;
58208;SDS011;44006;52.028;4.696;2022-07-29T00:41:47;2.55;;;1.20;;
58208;SDS011;44006;52.028;4.696;2022-07-29T00:44:13;3.28;;;1.42;;
58208;SDS011;44006;52.028;4.696;2022-07-29T00:46:39;3.45;;;1.20;;
58208;SDS011;44006;52.028;4.696;2022-07-29T00:49:04;8.20;;;1.42;;
58208;SDS011;44006;52.028;4.696;2022-07-29T00:51:29;4.13;;;1.45;;
58208;SDS011;44006;52.028;4.696;2022-07-29T00:53:55;2.47;;;1.30;;
58208;SDS011;44006;52.028;4.696;2022-07-29T00:56:21;2.83;;;1.40;;
58208;SDS011;44006;52.028;4.696;2022-07-29T00:58:47;3.53;;;1.40;;
58208;SDS011;44006;52.028;4.696;2022-07-29T01:01:15;5.00;;;1.25;;
58208;SDS011;44006;52.028;4.696;2022-07-29T01:03:40;4.43;;;1.50;;
58208;SDS011;44006;52.028;4.696;2022-07-29T01:06:06;4.47;;;1.60;;
58208;SDS011;44006;52.028;4.696;2022-07-29T01:08:31;3.95;;;1.40;;
58208;SDS011;44006;52.028;4.696;2022-07-29T01:10:57;3.38;;;1.20;;
58208;SDS011;44006;52.028;4.696;2022-07-29T01:13:24;2.17;;;1.42;;
58208;SDS011;44006;52.028;4.696;2022-07-29T01:15:52;6.50;;;1.80;;
58208;SDS011;44006;52.028;4.696;2022-07-29T01:18:24;3.35;;;1.40;;
58208;SDS011;44006;52.028;4.696;2022-07-29T01:21:21;3.97;;;1.60;;
58208;SDS011;44006;52.028;4.696;2022-07-29T01:29:44;4.85;;;1.45;;
58208;SDS011;44006;52.028;4.696;2022-07-29T01:32:20;3.75;;;1.35;;
58208;SDS011;44006;52.028;4.696;2022-07-29T01:35:03;4.57;;;1.70;;
58208;SDS011;44006;52.028;4.696;2022-07-29T01:37:39;4.50;;;1.48;;
58208;SDS011;44006;52.028;4.696;2022-07-29T01:40:20;4.85;;;1.27;;
58208;SDS011;44006;52.028;4.696;2022-07-29T01:42:50;7.93;;;1.85;;
58208;SDS011;44006;52.028;4.696;2022-07-29T01:45:28;3.42;;;1.35;;
58208;SDS011;44006;52.028;4.696;2022-07-29T01:48:26;4.38;;;1.52;;
58208;SDS011;44006;52.028;4.696;2022-07-29T01:51:07;3.50;;;1.55;;
58208;SDS011;44006;52.028;4.696;2022-07-29T01:53:42;5.28;;;1.50;;
58208;SDS011;44006;52.028;4.696;2022-07-29T01:56:13;3.25;;;1.58;;
58208;SDS011;44006;52.028;4.696;2022-07-29T01:58:41;3.70;;;1.65;;
58208;SDS011;44006;52.028;4.696;2022-07-29T02:01:10;4.43;;;1.42;;
58208;SDS011;44006;52.028;4.696;2022-07-29T02:03:38;5.35;;;1.67;;
58208;SDS011;44006;52.028;4.696;2022-07-29T02:06:06;3.90;;;1.52;;
58208;SDS011;44006;52.028;4.696;2022-07-29T02:08:33;3.70;;;1.33;;
58208;SDS011;44006;52.028;4.696;2022-07-29T02:11:00;5.95;;;1.50;;
58208;SDS011;44006;52.028;4.696;2022-07-29T02:13:28;3.00;;;1.40;;
58208;SDS011;44006;52.028;4.696;2022-07-29T02:15:55;5.40;;;1.33;;
58208;SDS011;44006;52.028;4.696;2022-07-29T02:18:23;3.53;;;1.48;;
58208;SDS011;44006;52.028;4.696;2022-07-29T02:20:53;6.20;;;1.63;;
58208;SDS011;44006;52.028;4.696;2022-07-29T02:23:21;6.18;;;1.60;;
58208;SDS011;44006;52.028;4.696;2022-07-29T02:25:49;3.10;;;1.23;;
58208;SDS011;44006;52.028;4.696;2022-07-29T02:28:17;4.97;;;1.52;;
58208;SDS011;44006;52.028;4.696;2022-07-29T02:30:45;4.55;;;1.40;;
58208;SDS011;44006;52.028;4.696;2022-07-29T02:33:13;3.50;;;1.52;;
58208;SDS011;44006;52.028;4.696;2022-07-29T02:35:40;5.65;;;1.52;;
58208;SDS011;44006;52.028;4.696;2022-07-29T02:38:08;4.88;;;1.70;;
58208;SDS011;44006;52.028;4.696;2022-07-29T02:40:55;2.55;;;1.30;;
58208;SDS011;44006;52.028;4.696;2022-07-29T02:43:22;4.40;;;1.50;;
58208;SDS011;44006;52.028;4.696;2022-07-29T02:45:50;3.40;;;1.50;;
58208;SDS011;44006;52.028;4.696;2022-07-29T02:48:17;2.63;;;1.45;;
58208;SDS011;44006;52.028;4.696;2022-07-29T02:50:51;4.10;;;1.73;;
58208;SDS011;44006;52.028;4.696;2022-07-29T02:53:25;4.38;;;1.73;;
58208;SDS011;44006;52.028;4.696;2022-07-29T02:55:55;3.25;;;1.55;;
58208;SDS011;44006;52.028;4.696;2022-07-29T02:58:36;3.95;;;1.60;;
58208;SDS011;44006;52.028;4.696;2022-07-29T03:01:40;6.88;;;1.90;;
58208;SDS011;44006;52.028;4.696;2022-07-29T03:04:00;3.55;;;1.58;;
58208;SDS011;44006;52.028;4.696;2022-07-29T03:06:27;5.47;;;1.73;;
58208;SDS011;44006;52.028;4.696;2022-07-29T03:08:54;5.68;;;1.85;;
58208;SDS011;44006;52.028;4.696;2022-07-29T03:11:21;5.40;;;1.73;;
58208;SDS011;44006;52.028;4.696;2022-07-29T03:13:47;3.75;;;1.77;;
58208;SDS011;44006;52.028;4.696;2022-07-29T03:16:12;4.10;;;1.92;;
58208;SDS011;44006;52.028;4.696;2022-07-29T03:18:38;5.45;;;1.83;;
58208;SDS011;44006;52.028;4.696;2022-07-29T03:21:04;4.35;;;1.75;;
58208;SDS011;44006;52.028;4.696;2022-07-29T03:23:30;4.25;;;2.13;;
58208;SDS011;44006;52.028;4.696;2022-07-29T03:25:55;3.88;;;1.90;;
58208;SDS011;44006;52.028;4.696;2022-07-29T03:28:21;3.08;;;1.85;;
58208;SDS011;44006;52.028;4.696;2022-07-29T03:30:47;4.47;;;2.00;;
58208;SDS011;44006;52.028;4.696;2022-07-29T03:33:13;4.75;;;2.13;;
58208;SDS011;44006;52.028;4.696;2022-07-29T03:35:39;4.13;;;1.90;;
58208;SDS011;44006;52.028;4.696;2022-07-29T03:38:05;6.47;;;2.03;;
58208;SDS011;44006;52.028;4.696;2022-07-29T03:40:40;4.15;;;1.95;;
58208;SDS011;44006;52.028;4.696;2022-07-29T03:43:11;4.03;;;1.75;;
58208;SDS011;44006;52.028;4.696;2022-07-29T03:45:41;6.53;;;2.25;;
58208;SDS011;44006;52.028;4.696;2022-07-29T03:48:12;5.30;;;2.08;;
58208;SDS011;44006;52.028;4.696;2022-07-29T03:50:39;4.32;;;2.42;;
58208;SDS011;44006;52.028;4.696;2022-07-29T03:53:04;4.63;;;1.95;;
58208;SDS011;44006;52.028;4.696;2022-07-29T03:55:32;5.05;;;2.40;;
58208;SDS011;44006;52.028;4.696;2022-07-29T03:58:02;4.05;;;2.08;;
58208;SDS011;44006;52.028;4.696;2022-07-29T04:00:28;4.82;;;2.30;;
58208;SDS011;44006;52.028;4.696;2022-07-29T04:02:55;4.75;;;2.22;;
58208;SDS011;44006;52.028;4.696;2022-07-29T04:05:21;3.65;;;2.22;;
58208;SDS011;44006;52.028;4.696;2022-07-29T04:07:47;3.33;;;2.20;;
58208;SDS011;44006;52.028;4.696;2022-07-29T04:10:13;4.95;;;2.13;;
58208;SDS011;44006;52.028;4.696;2022-07-29T04:12:40;5.43;;;2.40;;
58208;SDS011;44006;52.028;4.696;2022-07-29T04:15:06;5.65;;;2.55;;
58208;SDS011;44006;52.028;4.696;2022-07-29T04:17:32;5.03;;;2.38;;
58208;SDS011;44006;52.028;4.696;2022-07-29T04:19:57;5.00;;;1.92;;
58208;SDS011;44006;52.028;4.696;2022-07-29T04:22:23;6.50;;;2.10;;
58208;SDS011;44006;52.028;4.696;2022-07-29T04:24:48;3.40;;;1.90;;
58208;SDS011;44006;52.028;4.696;2022-07-29T04:27:13;6.45;;;2.35;;
58208;SDS011;44006;52.028;4.696;2022-07-29T04:29:40;4.18;;;2.13;;
58208;SDS011;44006;52.028;4.696;2022-07-29T04:32:05;4.93;;;2.40;;
58208;SDS011;44006;52.028;4.696;2022-07-29T04:34:31;4.57;;;2.30;;
58208;SDS011;44006;52.028;4.696;2022-07-29T04:36:56;5.35;;;2.20;;
58208;SDS011;44006;52.028;4.696;2022-07-29T04:39:22;5.63;;;2.42;;
58208;SDS011;44006;52.028;4.696;2022-07-29T04:41:48;5.88;;;2.20;;
58208;SDS011;44006;52.028;4.696;2022-07-29T04:44:14;5.10;;;2.28;;
58208;SDS011;44006;52.028;4.696;2022-07-29T04:46:39;4.20;;;2.05;;
58208;SDS011;44006;52.028;4.696;2022-07-29T04:49:04;4.75;;;1.92;;
58208;SDS011;44006;52.028;4.696;2022-07-29T04:51:30;4.53;;;2.00;;
58208;SDS011;44006;52.028;4.696;2022-07-29T04:53:55;4.53;;;2.03;;
58208;SDS011;44006;52.028;4.696;2022-07-29T04:56:21;5.45;;;2.17;;
58208;SDS011;44006;52.028;4.696;2022-07-29T04:58:46;6.78;;;2.10;;
58208;SDS011;44006;52.028;4.696;2022-07-29T05:01:12;6.97;;;2.38;;
58208;SDS011;44006;52.028;4.696;2022-07-29T05:03:37;6.30;;;2.20;;
58208;SDS011;44006;52.028;4.696;2022-07-29T05:06:03;4.25;;;1.83;;
58208;SDS011;44006;52.028;4.696;2022-07-29T05:08:28;6.80;;;2.20;;
58208;SDS011;44006;52.028;4.696;2022-07-29T05:10:53;7.47;;;2.17;;
58208;SDS011;44006;52.028;4.696;2022-07-29T05:13:19;4.50;;;2.80;;
58208;SDS011;44006;52.028;4.696;2022-07-29T05:15:44;5.72;;;1.92;;
58208;SDS011;44006;52.028;4.696;2022-07-29T05:18:10;5.68;;;1.95;;
58208;SDS011;44006;52.028;4.696;2022-07-29T05:20:35;7.97;;;1.95;;
58208;SDS011;44006;52.028;4.696;2022-07-29T05:23:00;4.03;;;2.20;;
58208;SDS011;44006;52.028;4.696;2022-07-29T05:25:27;4.93;;;2.53;;
58208;SDS011;44006;52.028;4.696;2022-07-29T05:27:53;4.40;;;1.85;;
58208;SDS011;44006;52.028;4.696;2022-07-29T05:30:19;4.43;;;2.10;;
58208;SDS011;44006;52.028;4.696;2022-07-29T05:32:44;4.90;;;2.00;;
58208;SDS011;44006;52.028;4.696;2022-07-29T05:35:10;5.22;;;1.85;;
58208;SDS011;44006;52.028;4.696;2022-07-29T05:37:36;4.30;;;1.90;;
58208;SDS011;44006;52.028;4.696;2022-07-29T05:40:02;4.97;;;2.05;;
58208;SDS011;44006;52.028;4.696;2022-07-29T05:42:30;4.57;;;2.35;;
58208;SDS011;44006;52.028;4.696;2022-07-29T05:44:55;6.30;;;2.30;;
58208;SDS011;44006;52.028;4.696;2022-07-29T05:47:21;5.72;;;2.08;;
58208;SDS011;44006;52.028;4.696;2022-07-29T05:49:47;6.38;;;2.15;;
58208;SDS011;44006;52.028;4.696;2022-07-29T05:52:12;4.95;;;2.20;;
58208;SDS011;44006;52.028;4.696;2022-07-29T05:54:40;4.18;;;1.98;;
58208;SDS011;44006;52.028;4.696;2022-07-29T05:57:06;3.25;;;2.10;;
58208;SDS011;44006;52.028;4.696;2022-07-29T05:59:35;2.72;;;1.85;;
58208;SDS011;44006;52.028;4.696;2022-07-29T06:02:01;3.72;;;1.85;;
58208;SDS011;44006;52.028;4.696;2022-07-29T06:04:27;5.22;;;2.20;;
58208;SDS011;44006;52.028;4.696;2022-07-29T06:06:52;7.47;;;2.35;;
58208;SDS011;44006;52.028;4.696;2022-07-29T06:09:17;7.53;;;2.20;;
58208;SDS011;44006;52.028;4.696;2022-07-29T06:11:43;4.20;;;2.20;;
58208;SDS011;44006;52.028;4.696;2022-07-29T06:14:08;5.32;;;2.50;;
58208;SDS011;44006;52.028;4.696;2022-07-29T06:16:33;5.70;;;2.25;;
58208;SDS011;44006;52.028;4.696;2022-07-29T06:18:59;7.32;;;2.30;;
58208;SDS011;44006;52.028;4.696;2022-07-29T06:21:24;6.05;;;1.92;;
58208;SDS011;44006;52.028;4.696;2022-07-29T06:23:49;4.30;;;2.30;;
58208;SDS011;44006;52.028;4.696;2022-07-29T06:26:15;6.50;;;1.90;;
58208;SDS011;44006;52.028;4.696;2022-07-29T06:28:41;4.50;;;1.98;;
58208;SDS011;44006;52.028;4.696;2022-07-29T06:31:06;5.40;;;1.90;;
58208;SDS011;44006;52.028;4.696;2022-07-29T06:33:33;6.13;;;2.30;;
58208;SDS011;44006;52.028;4.696;2022-07-29T06:35:58;5.20;;;2.40;;
58208;SDS011;44006;52.028;4.696;2022-07-29T06:38:24;3.75;;;1.75;;
58208;SDS011;44006;52.028;4.696;2022-07-29T06:40:50;4.88;;;2.10;;
58208;SDS011;44006;52.028;4.696;2022-07-29T06:43:28;3.35;;;1.60;;
58208;SDS011;44006;52.028;4.696;2022-07-29T06:46:08;5.10;;;1.83;;
58208;SDS011;44006;52.028;4.696;2022-07-29T06:48:35;4.47;;;2.03;;
58208;SDS011;44006;52.028;4.696;2022-07-29T06:51:01;7.07;;;2.15;;
58208;SDS011;44006;52.028;4.696;2022-07-29T06:53:28;5.72;;;1.95;;
58208;SDS011;44006;52.028;4.696;2022-07-29T06:55:53;3.20;;;1.80;;
58208;SDS011;44006;52.028;4.696;2022-07-29T06:58:19;3.03;;;1.92;;
58208;SDS011;44006;52.028;4.696;2022-07-29T07:00:46;4.80;;;2.08;;
58208;SDS011;44006;52.028;4.696;2022-07-29T07:03:12;6.03;;;2.10;;
58208;SDS011;44006;52.028;4.696;2022-07-29T07:05:38;6.22;;;2.38;;
58208;SDS011;44006;52.028;4.696;2022-07-29T07:08:04;6.82;;;1.80;;
58208;SDS011;44006;52.028;4.696;2022-07-29T07:10:29;4.18;;;1.77;;
58208;SDS011;44006;52.028;4.696;2022-07-29T07:12:55;4.38;;;2.10;;
58208;SDS011;44006;52.028;4.696;2022-07-29T07:15:20;6.05;;;2.10;;
58208;SDS011;44006;52.028;4.696;2022-07-29T07:17:47;5.13;;;2.35;;
58208;SDS011;44006;52.028;4.696;2022-07-29T07:20:14;5.78;;;2.83;;
58208;SDS011;44006;52.028;4.696;2022-07-29T07:22:39;4.97;;;2.10;;
58208;SDS011;44006;52.028;4.696;2022-07-29T07:25:05;6.65;;;2.13;;
58208;SDS011;44006;52.028;4.696;2022-07-29T07:27:31;5.60;;;2.22;;
58208;SDS011;44006;52.028;4.696;2022-07-29T07:29:56;7.32;;;3.65;;
58208;SDS011;44006;52.028;4.696;2022-07-29T07:32:23;5.07;;;2.33;;
58208;SDS011;44006;52.028;4.696;2022-07-29T07:34:48;5.53;;;1.80;;
58208;SDS011;44006;52.028;4.696;2022-07-29T07:37:13;5.18;;;2.40;;
58208;SDS011;44006;52.028;4.696;2022-07-29T07:39:39;3.47;;;2.30;;
58208;SDS011;44006;52.028;4.696;2022-07-29T07:42:05;5.93;;;2.40;;
58208;SDS011;44006;52.028;4.696;2022-07-29T07:44:30;3.20;;;2.13;;
58208;SDS011;44006;52.028;4.696;2022-07-29T07:46:56;7.03;;;2.25;;
58208;SDS011;44006;52.028;4.696;2022-07-29T07:49:21;7.68;;;2.75;;
58208;SDS011;44006;52.028;4.696;2022-07-29T07:51:46;5.65;;;2.42;;
58208;SDS011;44006;52.028;4.696;2022-07-29T07:54:12;3.60;;;2.15;;
58208;SDS011;44006;52.028;4.696;2022-07-29T07:56:37;8.35;;;2.38;;
58208;SDS011;44006;52.028;4.696;2022-07-29T07:59:02;6.78;;;2.40;;
58208;SDS011;44006;52.028;4.696;2022-07-29T08:01:28;7.07;;;2.70;;
58208;SDS011;44006;52.028;4.696;2022-07-29T08:03:53;7.38;;;2.63;;
58208;SDS011;44006;52.028;4.696;2022-07-29T08:06:19;5.28;;;2.33;;
58208;SDS011;44006;52.028;4.696;2022-07-29T08:08:45;6.88;;;2.55;;
58208;SDS011;44006;52.028;4.696;2022-07-29T08:11:11;8.70;;;2.20;;
58208;SDS011;44006;52.028;4.696;2022-07-29T08:13:38;5.85;;;2.58;;
58208;SDS011;44006;52.028;4.696;2022-07-29T08:16:04;9.00;;;2.67;;
58208;SDS011;44006;52.028;4.696;2022-07-29T08:18:38;8.50;;;2.40;;
58208;SDS011;44006;52.028;4.696;2022-07-29T08:21:06;7.53;;;2.80;;
58208;SDS011;44006;52.028;4.696;2022-07-29T08:23:33;6.85;;;2.42;;
58208;SDS011;44006;52.028;4.696;2022-07-29T08:26:10;4.20;;;2.70;;
58208;SDS011;44006;52.028;4.696;2022-07-29T08:28:38;5.20;;;2.33;;
58208;SDS011;44006;52.028;4.696;2022-07-29T08:31:05;11.98;;;2.67;;
58208;SDS011;44006;52.028;4.696;2022-07-29T08:33:31;7.75;;;2.80;;
58208;SDS011;44006;52.028;4.696;2022-07-29T08:35:57;7.15;;;2.42;;
58208;SDS011;44006;52.028;4.696;2022-07-29T08:38:23;5.22;;;2.28;;
58208;SDS011;44006;52.028;4.696;2022-07-29T08:40:48;5.68;;;2.47;;
58208;SDS011;44006;52.028;4.696;2022-07-29T08:43:14;6.57;;;2.40;;
58208;SDS011;44006;52.028;4.696;2022-07-29T08:45:44;5.00;;;2.20;;
58208;SDS011;44006;52.028;4.696;2022-07-29T08:48:15;5.15;;;2.30;;
58208;SDS011;44006;52.028;4.696;2022-07-29T08:50:43;4.82;;;2.47;;
58208;SDS011;44006;52.028;4.696;2022-07-29T08:53:11;7.35;;;2.35;;
58208;SDS011;44006;52.028;4.696;2022-07-29T08:55:46;6.03;;;2.13;;
58208;SDS011;44006;52.028;4.696;2022-07-29T08:58:12;8.63;;;2.40;;
58208;SDS011;44006;52.028;4.696;2022-07-29T09:01:01;8.77;;;2.50;;
58208;SDS011;44006;52.028;4.696;2022-07-29T09:03:29;5.30;;;2.35;;
58208;SDS011;44006;52.028;4.696;2022-07-29T09:05:56;5.25;;;2.38;;
58208;SDS011;44006;52.028;4.696;2022-07-29T09:08:22;7.00;;;2.50;;
58208;SDS011;44006;52.028;4.696;2022-07-29T09:10:48;7.32;;;2.40;;
58208;SDS011;44006;52.028;4.696;2022-07-29T09:13:14;6.40;;;2.53;;
58208;SDS011;44006;52.028;4.696;2022-07-29T09:15:39;6.10;;;2.35;;
58208;SDS011;44006;52.028;4.696;2022-07-29T09:18:04;4.97;;;2.55;;
58208;SDS011;44006;52.028;4.696;2022-07-29T09:20:31;6.95;;;2.78;;
58208;SDS011;44006;52.028;4.696;2022-07-29T09:23:15;5.30;;;2.58;;
58208;SDS011;44006;52.028;4.696;2022-07-29T09:25:40;6.72;;;2.63;;
58208;SDS011;44006;52.028;4.696;2022-07-29T09:30:33;6.38;;;2.38;;
58208;SDS011;44006;52.028;4.696;2022-07-29T09:32:59;6.20;;;2.30;;
58208;SDS011;44006;52.028;4.696;2022-07-29T09:35:26;5.78;;;2.65;;
58208;SDS011;44006;52.028;4.696;2022-07-29T09:37:53;5.60;;;2.75;;
58208;SDS011;44006;52.028;4.696;2022-07-29T09:42:48;5.00;;;2.60;;
58208;SDS011;44006;52.028;4.696;2022-07-29T09:45:27;7.75;;;3.03;;
58208;SDS011;44006;52.028;4.696;2022-07-29T09:47:58;8.00;;;2.67;;
58208;SDS011;44006;52.028;4.696;2022-07-29T09:50:34;4.28;;;2.63;;
58208;SDS011;44006;52.028;4.696;2022-07-29T09:53:01;11.27;;;3.03;;
58208;SDS011;44006;52.028;4.696;2022-07-29T09:55:27;5.45;;;2.70;;
58208;SDS011;44006;52.028;4.696;2022-07-29T09:57:52;6.80;;;3.05;;
58208;SDS011;44006;52.028;4.696;2022-07-29T10:00:19;6.10;;;2.47;;
58208;SDS011;44006;52.028;4.696;2022-07-29T10:02:48;5.53;;;2.63;;
58208;SDS011;44006;52.028;4.696;2022-07-29T10:07:50;7.00;;;2.40;;
58208;SDS011;44006;52.028;4.696;2022-07-29T10:10:21;6.72;;;2.53;;
58208;SDS011;44006;52.028;4.696;2022-07-29T10:15:15;5.82;;;1.90;;
58208;SDS011;44006;52.028;4.696;2022-07-29T10:17:41;6.13;;;2.17;;
58208;SDS011;44006;52.028;4.696;2022-07-29T10:20:07;6.43;;;2.00;;
58208;SDS011;44006;52.028;4.696;2022-07-29T10:22:33;7.40;;;2.35;;
58208;SDS011;44006;52.028;4.696;2022-07-29T10:24:58;4.65;;;2.20;;
58208;SDS011;44006;52.028;4.696;2022-07-29T10:27:24;5.97;;;2.00;;
58208;SDS011;44006;52.028;4.696;2022-07-29T10:29:50;6.00;;;1.98;;
58208;SDS011;44006;52.028;4.696;2022-07-29T10:46:50;6.32;;;2.10;;
58208;SDS011;44006;52.028;4.696;2022-07-29T10:49:17;7.03;;;1.77;;
58208;SDS011;44006;52.028;4.696;2022-07-29T10:59:45;7.82;;;2.38;;
58208;SDS011;44006;52.028;4.696;2022-07-29T11:05:00;4.22;;;1.95;;
58208;SDS011;44006;52.028;4.696;2022-07-29T11:07:29;6.50;;;2.13;;
58208;SDS011;44006;52.028;4.696;2022-07-29T11:15:11;5.97;;;2.20;;
58208;SDS011;44006;52.028;4.696;2022-07-29T11:34:20;5.63;;;2.10;;
58208;SDS011;44006;52.028;4.696;2022-07-29T11:39:34;5.60;;;2.42;;
58208;SDS011;44006;52.028;4.696;2022-07-29T11:47:26;8.07;;;2.33;;
58208;SDS011;44006;52.028;4.696;2022-07-29T11:49:53;6.35;;;2.20;;
58208;SDS011;44006;52.028;4.696;2022-07-29T11:52:21;7.88;;;2.15;;
58208;SDS011;44006;52.028;4.696;2022-07-29T11:54:47;5.15;;;2.55;;
58208;SDS011;44006;52.028;4.696;2022-07-29T11:57:14;6.63;;;2.28;;
58208;SDS011;44006;52.028;4.696;2022-07-29T11:59:41;9.65;;;2.20;;
58208;SDS011;44006;52.028;4.696;2022-07-29T12:02:09;4.97;;;2.17;;
58208;SDS011;44006;52.028;4.696;2022-07-29T12:04:54;5.88;;;2.10;;
58208;SDS011;44006;52.028;4.696;2022-07-29T12:07:27;4.03;;;2.08;;
58208;SDS011;44006;52.028;4.696;2022-07-29T12:09:57;9.88;;;3.10;;
58208;SDS011;44006;52.028;4.696;2022-07-29T12:12:23;7.68;;;2.10;;
58208;SDS011;44006;52.028;4.696;2022-07-29T12:14:49;7.38;;;2.15;;
58208;SDS011;44006;52.028;4.696;2022-07-29T12:17:27;10.43;;;2.08;;
58208;SDS011;44006;52.028;4.696;2022-07-29T12:19:55;6.50;;;1.60;;
58208;SDS011;44006;52.028;4.696;2022-07-29T12:22:24;7.13;;;2.08;;
58208;SDS011;44006;52.028;4.696;2022-07-29T12:25:11;4.10;;;1.90;;
58208;SDS011;44006;52.028;4.696;2022-07-29T12:27:39;4.70;;;1.60;;
58208;SDS011;44006;52.028;4.696;2022-07-29T12:30:06;5.03;;;2.13;;
58208;SDS011;44006;52.028;4.696;2022-07-29T12:35:12;4.20;;;1.45;;
58208;SDS011;44006;52.028;4.696;2022-07-29T12:37:45;7.05;;;2.05;;
58208;SDS011;44006;52.028;4.696;2022-07-29T12:40:16;5.20;;;2.08;;
58208;SDS011;44006;52.028;4.696;2022-07-29T12:45:30;5.05;;;1.63;;
58208;SDS011;44006;52.028;4.696;2022-07-29T12:47:56;7.13;;;1.85;;
58208;SDS011;44006;52.028;4.696;2022-07-29T12:50:21;7.55;;;1.95;;
58208;SDS011;44006;52.028;4.696;2022-07-29T12:52:47;4.90;;;2.25;;
58208;SDS011;44006;52.028;4.696;2022-07-29T12:55:13;8.10;;;2.20;;
58208;SDS011;44006;52.028;4.696;2022-07-29T12:57:46;6.03;;;1.92;;
58208;SDS011;44006;52.028;4.696;2022-07-29T13:00:12;6.03;;;1.88;;
58208;SDS011;44006;52.028;4.696;2022-07-29T13:02:39;5.22;;;1.70;;
58208;SDS011;44006;52.028;4.696;2022-07-29T13:05:06;9.13;;;2.35;;
58208;SDS011;44006;52.028;4.696;2022-07-29T13:07:35;8.48;;;2.10;;
58208;SDS011;44006;52.028;4.696;2022-07-29T13:10:09;4.72;;;1.70;;
58208;SDS011;44006;52.028;4.696;2022-07-29T13:12:36;9.55;;;2.65;;
58208;SDS011;44006;52.028;4.696;2022-07-29T13:15:12;8.23;;;2.40;;
58208;SDS011;44006;52.028;4.696;2022-07-29T13:17:40;6.10;;;2.20;;
58208;SDS011;44006;52.028;4.696;2022-07-29T13:20:09;4.97;;;2.00;;
58208;SDS011;44006;52.028;4.696;2022-07-29T13:22:42;6.15;;;2.35;;
58208;SDS011;44006;52.028;4.696;2022-07-29T13:25:08;4.53;;;2.10;;
58208;SDS011;44006;52.028;4.696;2022-07-29T13:27:34;7.85;;;2.45;;
58208;SDS011;44006;52.028;4.696;2022-07-29T13:30:06;6.30;;;2.40;;
58208;SDS011;44006;52.028;4.696;2022-07-29T13:32:33;4.90;;;2.30;;
58208;SDS011;44006;52.028;4.696;2022-07-29T13:35:05;6.63;;;2.03;;
58208;SDS011;44006;52.028;4.696;2022-07-29T13:37:33;6.88;;;2.30;;
58208;SDS011;44006;52.028;4.696;2022-07-29T13:39:59;5.10;;;2.13;;
58208;SDS011;44006;52.028;4.696;2022-07-29T13:42:28;5.32;;;2.22;;
58208;SDS011;44006;52.028;4.696;2022-07-29T13:44:53;5.00;;;2.17;;
58208;SDS011;44006;52.028;4.696;2022-07-29T13:47:19;6.18;;;2.42;;
58208;SDS011;44006;52.028;4.696;2022-07-29T13:49:44;7.93;;;3.05;;
58208;SDS011;44006;52.028;4.696;2022-07-29T13:52:11;5.13;;;2.42;;
58208;SDS011;44006;52.028;4.696;2022-07-29T13:54:37;9.43;;;2.47;;
58208;SDS011;44006;52.028;4.696;2022-07-29T13:57:05;5.07;;;2.08;;
58208;SDS011;44006;52.028;4.696;2022-07-29T13:59:31;6.85;;;2.00;;
58208;SDS011;44006;52.028;4.696;2022-07-29T14:01:59;3.47;;;1.73;;
58208;SDS011;44006;52.028;4.696;2022-07-29T14:04:25;7.65;;;1.90;;
58208;SDS011;44006;52.028;4.696;2022-07-29T14:06:51;6.20;;;1.85;;
58208;SDS011;44006;52.028;4.696;2022-07-29T14:09:16;4.82;;;1.73;;
58208;SDS011;44006;52.028;4.696;2022-07-29T14:11:42;7.85;;;2.08;;
58208;SDS011;44006;52.028;4.696;2022-07-29T14:14:08;4.93;;;1.63;;
58208;SDS011;44006;52.028;4.696;2022-07-29T14:16:35;11.98;;;2.20;;
58208;SDS011;44006;52.028;4.696;2022-07-29T14:19:00;6.43;;;1.83;;
58208;SDS011;44006;52.028;4.696;2022-07-29T14:21:26;4.65;;;1.70;;
58208;SDS011;44006;52.028;4.696;2022-07-29T14:23:51;8.52;;;1.75;;
58208;SDS011;44006;52.028;4.696;2022-07-29T14:26:17;4.07;;;1.52;;
58208;SDS011;44006;52.028;4.696;2022-07-29T14:28:43;5.95;;;1.80;;
58208;SDS011;44006;52.028;4.696;2022-07-29T14:31:09;7.93;;;1.73;;
58208;SDS011;44006;52.028;4.696;2022-07-29T14:33:34;4.68;;;1.50;;
58208;SDS011;44006;52.028;4.696;2022-07-29T14:36:00;5.45;;;2.00;;
58208;SDS011;44006;52.028;4.696;2022-07-29T14:38:25;5.45;;;2.22;;
58208;SDS011;44006;52.028;4.696;2022-07-29T14:40:51;7.80;;;1.90;;
58208;SDS011;44006;52.028;4.696;2022-07-29T14:43:16;4.30;;;2.03;;
58208;SDS011;44006;52.028;4.696;2022-07-29T14:45:42;6.35;;;2.20;;
58208;SDS011;44006;52.028;4.696;2022-07-29T14:48:07;6.63;;;2.15;;
58208;SDS011;44006;52.028;4.696;2022-07-29T14:50:33;5.25;;;1.95;;
58208;SDS011;44006;52.028;4.696;2022-07-29T14:52:58;5.15;;;1.58;;
58208;SDS011;44006;52.028;4.696;2022-07-29T14:55:24;4.50;;;1.80;;
58208;SDS011;44006;52.028;4.696;2022-07-29T14:57:50;9.77;;;1.80;;
58208;SDS011;44006;52.028;4.696;2022-07-29T15:00:15;7.47;;;1.50;;
58208;SDS011;44006;52.028;4.696;2022-07-29T15:02:41;5.18;;;1.52;;
58208;SDS011;44006;52.028;4.696;2022-07-29T15:05:07;4.95;;;1.70;;
58208;SDS011;44006;52.028;4.696;2022-07-29T15:07:32;5.03;;;1.90;;
58208;SDS011;44006;52.028;4.696;2022-07-29T15:09:58;5.00;;;1.73;;
58208;SDS011;44006;52.028;4.696;2022-07-29T15:12:24;4.07;;;1.40;;
58208;SDS011;44006;52.028;4.696;2022-07-29T15:14:49;3.05;;;1.40;;
58208;SDS011;44006;52.028;4.696;2022-07-29T15:17:14;5.20;;;1.50;;
58208;SDS011;44006;52.028;4.696;2022-07-29T15:19:40;6.25;;;1.80;;
58208;SDS011;44006;52.028;4.696;2022-07-29T15:22:05;3.97;;;1.65;;
58208;SDS011;44006;52.028;4.696;2022-07-29T15:24:30;3.70;;;1.30;;
58208;SDS011;44006;52.028;4.696;2022-07-29T15:26:56;4.57;;;1.48;;
58208;SDS011;44006;52.028;4.696;2022-07-29T15:29:22;4.22;;;1.50;;
58208;SDS011;44006;52.028;4.696;2022-07-29T15:31:47;4.97;;;1.80;;
58208;SDS011;44006;52.028;4.696;2022-07-29T15:34:13;3.55;;;1.52;;
58208;SDS011;44006;52.028;4.696;2022-07-29T15:36:38;5.95;;;1.60;;
58208;SDS011;44006;52.028;4.696;2022-07-29T15:39:04;6.97;;;1.90;;
58208;SDS011;44006;52.028;4.696;2022-07-29T15:41:29;4.82;;;1.35;;
58208;SDS011;44006;52.028;4.696;2022-07-29T15:43:55;7.35;;;1.65;;
58208;SDS011;44006;52.028;4.696;2022-07-29T15:46:20;5.22;;;1.75;;
58208;SDS011;44006;52.028;4.696;2022-07-29T15:49:04;7.40;;;1.85;;
58208;SDS011;44006;52.028;4.696;2022-07-29T15:51:32;3.53;;;1.50;;
58208;SDS011;44006;52.028;4.696;2022-07-29T15:53:58;6.88;;;1.80;;
58208;SDS011;44006;52.028;4.696;2022-07-29T15:56:25;4.03;;;1.50;;
58208;SDS011;44006;52.028;4.696;2022-07-29T15:58:51;4.32;;;1.60;;
58208;SDS011;44006;52.028;4.696;2022-07-29T16:01:17;3.67;;;1.40;;
58208;SDS011;44006;52.028;4.696;2022-07-29T16:03:43;4.88;;;1.60;;
58208;SDS011;44006;52.028;4.696;2022-07-29T16:06:08;4.13;;;1.52;;